Crowley, TX (76036)

2:22 PM CST on February 10, 2016 (GMT -0600)
Driskell Estates | | Change Station
CLOSE
Current Station
Personal Weather Station
Location: Crowley, TX
Elevation: 728 ft
Nearby Weather Stations

Elev 728 ft 32.58 °N, 97.35 °W | Updated 15 seconds ago

Clear
Clear
70.5 °F
Feels Like 75 °F
N
2.7
Wind Variable Wind from WNW
Gusts 4.9 mph

Today
High -- | Low -- °F
--% Chance of Precip.
Yesterday
High -- | Low -- °F
Precip. -- in
Pressure 30.21 in
Visibility 20.0 miles
Clouds Clear
Heat Index 75 °F
Dew Point 31 °F
Humidity 23%
Rainfall 0.00 in
Snow Depth Not available.
7:17 AM 6:10 PM
Waxing Crescent, 7% visible
METAR KFWS 101950Z 21012G18KT 20SM SKC 21/00 A3021
Pressure 30.21 in
Visibility 20.0 miles
Clouds Clear
Heat Index 75 °F
Dew Point 31 °F
Humidity 23%
Rainfall 0.00 in
Snow Depth Not available.
7:17 AM 6:10 PM
Waxing Crescent, 7% visible
METAR KFWS 101950Z 21012G18KT 20SM SKC 21/00 A3021

10-Day Weather Forecast

Almanac

Astronomy

Feb. 10, 2016 Rise Set
Actual Time
Civil Twilight
Nautical Twilight
Astronomical Twilight
Moon
Length of Visible Light
Length of Day
Tomorrow will be .
, % of the Moon is Illuminated

Today's Extremes

State Highs State Lows

Community

WunderPhotos

Upload Photos

1,891,942 photos uploaded!

WunderBlog® & News

Nearby

Air Quality

  Air Quality AQ Index Pollutant
Not available.

Snow Depth

Station Depth Elevation

Earthquake Activity

City Distance Mag. Time & Date
Minimum magnitude displayed is 2.5.

Coastal Water Temperatures

Place Temperature

Stations

Nearby Weather Stations

Station Location Temp. Windchill Dew Point Humidity Wind Precip. Elev Updated Type
                   

Watches & Warnings

There are currently no watches in effect.